TKY1905 LFOB-LPPT
Flight info
| Callsign | TKY1905 |
|---|---|
| Flight time | 2h 6m |
| Altitude | 33000 |
| Route | LGL UT176 TERPO UN872 ERIGA UZ218 FUJTI DCT BAKUP DCT BATAX DCT INBOM |
| Aircraft | A321/M-SDE3FGHIRWY/LB1 |
Departure
| Time | 2026-04-25 13:45 |
|---|---|
| Airport | Beauvais-Tillé airport (LFOB) |
Arrival
| Time | 2026-04-25 15:51 |
|---|---|
| Airport | Lisbon Humberto Delgado Airport (LPPT) |
| Time | Latitude | Longitude | Altitude | Speed | Heading |
|---|---|---|---|---|---|
| 2026-04-25 13:16 | 49.45853 | 2.11376 | 347 ft | 0 kts | 311° |
| 2026-04-25 13:35 | 49.45848 | 2.11385 | 356 ft | 4 kts | 311° |
| 2026-04-25 13:35 | 49.45831 | 2.11414 | 356 ft | 2 kts | 311° |
| 2026-04-25 13:35 | 49.45816 | 2.11440 | 355 ft | 4 kts | 311° |
| 2026-04-25 13:35 | 49.45802 | 2.11465 | 355 ft | 4 kts | 275° |
| 2026-04-25 13:36 | 49.45801 | 2.11472 | 359 ft | 4 kts | 195° |
| 2026-04-25 13:36 | 49.45826 | 2.11485 | 364 ft | 4 kts | 217° |
| 2026-04-25 13:36 | 49.45845 | 2.11511 | 357 ft | 4 kts | 223° |
| 2026-04-25 13:36 | 49.45863 | 2.11537 | 358 ft | 1 kts | 221° |
| 2026-04-25 13:39 | 49.45855 | 2.11526 | 358 ft | 4 kts | 221° |
| 2026-04-25 13:39 | 49.45820 | 2.11478 | 351 ft | 9 kts | 221° |
| 2026-04-25 13:39 | 49.45764 | 2.11399 | 350 ft | 13 kts | 225° |
| 2026-04-25 13:40 | 49.45706 | 2.11279 | 351 ft | 16 kts | 261° |
| 2026-04-25 13:40 | 49.45755 | 2.11119 | 351 ft | 18 kts | 302° |
| 2026-04-25 13:40 | 49.45773 | 2.10987 | 351 ft | 11 kts | 232° |
| 2026-04-25 13:40 | 49.45760 | 2.10972 | 356 ft | 0 kts | 213° |
| 2026-04-25 13:43 | 49.45760 | 2.10971 | 356 ft | 1 kts | 213° |
| 2026-04-25 13:44 | 49.45739 | 2.10950 | 354 ft | 6 kts | 212° |
| 2026-04-25 13:44 | 49.45683 | 2.10901 | 356 ft | 12 kts | 208° |
| 2026-04-25 13:44 | 49.45599 | 2.10926 | 357 ft | 17 kts | 128° |
| 2026-04-25 13:44 | 49.45473 | 2.11212 | 345 ft | 65 kts | 124° |
| 2026-04-25 13:45 | 49.45087 | 2.12100 | 332 ft | 132 kts | 123° |
| 2026-04-25 13:45 | 49.44470 | 2.13510 | 358 ft | 179 kts | 123° |
| 2026-04-25 13:45 | 49.43809 | 2.15044 | 1197 ft | 169 kts | 114° |
| 2026-04-25 13:45 | 49.43738 | 2.16774 | 1946 ft | 167 kts | 62° |
| 2026-04-25 13:46 | 49.44241 | 2.17689 | 2365 ft | 171 kts | 32° |
| 2026-04-25 13:46 | 49.45839 | 2.18154 | 2688 ft | 191 kts | 349° |
| 2026-04-25 13:46 | 49.46686 | 2.17649 | 2825 ft | 205 kts | 326° |
| 2026-04-25 13:46 | 49.47539 | 2.15803 | 3048 ft | 228 kts | 289° |
| 2026-04-25 13:47 | 49.47979 | 2.13320 | 3286 ft | 253 kts | 283° |
| 2026-04-25 13:47 | 49.48325 | 2.10593 | 3814 ft | 264 kts | 281° |
| 2026-04-25 13:47 | 49.48647 | 2.07790 | 4574 ft | 268 kts | 280° |
| 2026-04-25 13:47 | 49.48887 | 2.04941 | 5275 ft | 271 kts | 267° |
| 2026-04-25 13:48 | 49.48266 | 2.02184 | 5962 ft | 276 kts | 232° |
| 2026-04-25 13:48 | 49.46851 | 2.00176 | 6637 ft | 280 kts | 217° |
| 2026-04-25 13:48 | 49.45225 | 1.98491 | 7343 ft | 284 kts | 212° |
| 2026-04-25 13:48 | 49.43532 | 1.96915 | 8001 ft | 286 kts | 212° |
| 2026-04-25 13:49 | 49.41940 | 1.95093 | 8620 ft | 287 kts | 229° |
| 2026-04-25 13:49 | 49.40664 | 1.92725 | 9285 ft | 289 kts | 232° |
| 2026-04-25 13:49 | 49.39401 | 1.90317 | 9945 ft | 291 kts | 232° |
| 2026-04-25 13:49 | 49.38120 | 1.87872 | 10454 ft | 300 kts | 232° |
| 2026-04-25 13:50 | 49.36770 | 1.85293 | 10579 ft | 320 kts | 232° |
| 2026-04-25 13:50 | 49.35330 | 1.82548 | 10692 ft | 340 kts | 232° |
| 2026-04-25 13:50 | 49.33809 | 1.79647 | 10818 ft | 358 kts | 232° |
| 2026-04-25 13:50 | 49.32187 | 1.76560 | 10954 ft | 375 kts | 232° |
| 2026-04-25 13:51 | 49.30528 | 1.73414 | 11367 ft | 382 kts | 232° |
| 2026-04-25 13:51 | 49.28848 | 1.70239 | 11927 ft | 385 kts | 232° |
| 2026-04-25 13:51 | 49.27156 | 1.67041 | 12484 ft | 387 kts | 232° |
| 2026-04-25 13:51 | 49.25454 | 1.63826 | 13055 ft | 390 kts | 232° |
| 2026-04-25 13:52 | 49.23742 | 1.60593 | 13604 ft | 392 kts | 232° |
| 2026-04-25 13:52 | 49.22022 | 1.57350 | 14128 ft | 394 kts | 231° |
| 2026-04-25 13:52 | 49.20289 | 1.54083 | 14619 ft | 396 kts | 232° |
| 2026-04-25 13:52 | 49.18546 | 1.50805 | 15102 ft | 398 kts | 232° |
| 2026-04-25 13:53 | 49.16794 | 1.47520 | 15569 ft | 400 kts | 232° |
| 2026-04-25 13:53 | 49.15036 | 1.44226 | 16037 ft | 402 kts | 232° |
| 2026-04-25 13:53 | 49.13257 | 1.40895 | 16498 ft | 405 kts | 232° |
| 2026-04-25 13:53 | 49.11472 | 1.37556 | 16946 ft | 407 kts | 232° |
| 2026-04-25 13:54 | 49.09678 | 1.34205 | 17406 ft | 409 kts | 232° |
| 2026-04-25 13:54 | 49.07869 | 1.30832 | 17864 ft | 411 kts | 232° |
| 2026-04-25 13:54 | 49.06058 | 1.27463 | 18316 ft | 413 kts | 232° |
| 2026-04-25 13:54 | 49.04234 | 1.24072 | 18712 ft | 415 kts | 232° |
| 2026-04-25 13:55 | 49.02603 | 1.20434 | 19073 ft | 416 kts | 242° |
| 2026-04-25 13:55 | 49.01261 | 1.16521 | 19461 ft | 418 kts | 243° |
| 2026-04-25 13:55 | 48.99921 | 1.12580 | 19836 ft | 420 kts | 243° |
| 2026-04-25 13:55 | 48.98565 | 1.08625 | 20212 ft | 422 kts | 243° |
| 2026-04-25 13:56 | 48.97182 | 1.04610 | 20585 ft | 424 kts | 243° |
| 2026-04-25 13:56 | 48.95824 | 1.00677 | 20947 ft | 426 kts | 243° |
| 2026-04-25 13:56 | 48.94423 | 0.96621 | 21312 ft | 428 kts | 242° |
| 2026-04-25 13:56 | 48.93036 | 0.92609 | 21667 ft | 430 kts | 242° |
| 2026-04-25 13:57 | 48.91638 | 0.88576 | 22014 ft | 432 kts | 242° |
| 2026-04-25 13:57 | 48.90707 | 0.85897 | 22226 ft | 434 kts | 242° |
| 2026-04-25 13:57 | 48.88812 | 0.80449 | 22713 ft | 437 kts | 242° |
| 2026-04-25 13:57 | 48.87386 | 0.76370 | 23045 ft | 439 kts | 242° |
| 2026-04-25 13:58 | 48.85940 | 0.72276 | 23392 ft | 441 kts | 242° |
| 2026-04-25 13:58 | 48.84480 | 0.68168 | 23731 ft | 442 kts | 242° |
| 2026-04-25 13:58 | 48.83012 | 0.64062 | 24011 ft | 444 kts | 242° |
| 2026-04-25 13:58 | 48.81531 | 0.59938 | 24290 ft | 445 kts | 241° |
| 2026-04-25 13:59 | 48.80046 | 0.55806 | 24587 ft | 447 kts | 241° |
| 2026-04-25 13:59 | 48.78360 | 0.51846 | 24872 ft | 448 kts | 233° |
| 2026-04-25 13:59 | 48.76360 | 0.48211 | 25169 ft | 449 kts | 230° |
| 2026-04-25 13:59 | 48.74334 | 0.44606 | 25463 ft | 450 kts | 230° |
| 2026-04-25 14:00 | 48.72301 | 0.40988 | 25809 ft | 450 kts | 230° |
| 2026-04-25 14:00 | 48.70281 | 0.37391 | 26217 ft | 448 kts | 230° |
| 2026-04-25 14:00 | 48.68266 | 0.33806 | 26636 ft | 446 kts | 230° |
| 2026-04-25 14:00 | 48.66260 | 0.30249 | 27052 ft | 444 kts | 230° |
| 2026-04-25 14:01 | 48.64258 | 0.26711 | 27463 ft | 442 kts | 230° |
| 2026-04-25 14:01 | 48.62263 | 0.23192 | 27873 ft | 440 kts | 230° |
| 2026-04-25 14:01 | 48.60281 | 0.19699 | 28289 ft | 437 kts | 230° |
| 2026-04-25 14:01 | 48.58301 | 0.16213 | 28692 ft | 436 kts | 230° |
| 2026-04-25 14:02 | 48.56309 | 0.12696 | 29098 ft | 434 kts | 230° |
| 2026-04-25 14:02 | 48.54364 | 0.09233 | 29487 ft | 432 kts | 230° |
| 2026-04-25 14:02 | 48.52427 | 0.05776 | 29859 ft | 431 kts | 230° |
| 2026-04-25 14:02 | 48.51773 | 0.04610 | 29989 ft | 430 kts | 230° |
| 2026-04-25 14:03 | 48.48567 | -0.01093 | 30543 ft | 428 kts | 229° |
| 2026-04-25 14:03 | 48.46641 | -0.04504 | 30825 ft | 427 kts | 229° |
| 2026-04-25 14:03 | 48.44713 | -0.07909 | 31129 ft | 427 kts | 229° |
| 2026-04-25 14:03 | 48.42787 | -0.11304 | 31420 ft | 426 kts | 229° |
| 2026-04-25 14:04 | 48.40864 | -0.14686 | 31723 ft | 425 kts | 229° |
| 2026-04-25 14:04 | 48.38943 | -0.18064 | 32026 ft | 424 kts | 229° |
| 2026-04-25 14:04 | 48.37026 | -0.21434 | 32314 ft | 424 kts | 229° |
| 2026-04-25 14:04 | 48.35085 | -0.24843 | 32622 ft | 423 kts | 229° |
| 2026-04-25 14:05 | 48.33165 | -0.28195 | 32915 ft | 422 kts | 229° |
| 2026-04-25 14:05 | 48.31244 | -0.31520 | 33109 ft | 422 kts | 229° |
| 2026-04-25 14:05 | 48.29306 | -0.34854 | 33139 ft | 423 kts | 229° |
| 2026-04-25 14:06 | 48.25411 | -0.41546 | 33140 ft | 423 kts | 228° |
| 2026-04-25 14:06 | 48.21537 | -0.48204 | 33140 ft | 423 kts | 228° |
| 2026-04-25 14:07 | 48.17657 | -0.54850 | 33138 ft | 424 kts | 228° |
| 2026-04-25 14:07 | 48.13773 | -0.61497 | 33139 ft | 424 kts | 228° |
| 2026-04-25 14:08 | 48.09877 | -0.68130 | 33135 ft | 424 kts | 228° |
| 2026-04-25 14:08 | 48.05975 | -0.74757 | 33132 ft | 425 kts | 228° |
| 2026-04-25 14:09 | 48.02072 | -0.81388 | 33132 ft | 425 kts | 228° |
| 2026-04-25 14:09 | 47.98155 | -0.88010 | 33134 ft | 426 kts | 228° |
| 2026-04-25 14:10 | 47.94226 | -0.94632 | 33131 ft | 426 kts | 228° |
| 2026-04-25 14:10 | 47.90285 | -1.01252 | 33137 ft | 427 kts | 228° |
| 2026-04-25 14:11 | 47.86338 | -1.07874 | 33127 ft | 428 kts | 228° |
| 2026-04-25 14:11 | 47.82384 | -1.14509 | 33125 ft | 429 kts | 228° |
| 2026-04-25 14:12 | 47.78396 | -1.21185 | 33124 ft | 429 kts | 228° |
| 2026-04-25 14:12 | 47.74418 | -1.27815 | 33127 ft | 430 kts | 228° |
| 2026-04-25 14:13 | 47.70433 | -1.34446 | 33120 ft | 430 kts | 228° |
| 2026-04-25 14:13 | 47.66430 | -1.41071 | 33122 ft | 431 kts | 228° |
| 2026-04-25 14:14 | 47.63080 | -1.46619 | 33122 ft | 431 kts | 228° |
| 2026-04-25 14:14 | 47.59068 | -1.53241 | 33113 ft | 432 kts | 228° |
| 2026-04-25 14:15 | 47.55722 | -1.58759 | 33110 ft | 433 kts | 229° |
| 2026-04-25 14:15 | 47.51006 | -1.66524 | 33113 ft | 435 kts | 229° |
| 2026-04-25 14:16 | 47.46924 | -1.73235 | 33109 ft | 436 kts | 229° |
| 2026-04-25 14:16 | 47.42852 | -1.79896 | 33106 ft | 438 kts | 229° |
| 2026-04-25 14:17 | 47.38760 | -1.86573 | 33108 ft | 439 kts | 229° |
| 2026-04-25 14:17 | 47.34469 | -1.92997 | 33109 ft | 441 kts | 219° |
| 2026-04-25 14:18 | 47.29292 | -1.97911 | 33107 ft | 444 kts | 212° |
| 2026-04-25 14:18 | 47.23999 | -2.02621 | 33110 ft | 445 kts | 213° |
| 2026-04-25 14:19 | 47.18699 | -2.07354 | 33108 ft | 446 kts | 213° |
| 2026-04-25 14:19 | 47.13386 | -2.12096 | 33109 ft | 448 kts | 213° |
| 2026-04-25 14:20 | 47.08048 | -2.16844 | 33109 ft | 449 kts | 213° |
| 2026-04-25 14:20 | 47.02664 | -2.21614 | 33112 ft | 450 kts | 213° |
| 2026-04-25 14:21 | 46.97310 | -2.26339 | 33115 ft | 451 kts | 213° |
| 2026-04-25 14:21 | 46.91928 | -2.31087 | 33119 ft | 452 kts | 213° |
| 2026-04-25 14:22 | 46.86536 | -2.35831 | 33124 ft | 452 kts | 213° |
| 2026-04-25 14:22 | 46.81111 | -2.40603 | 33128 ft | 453 kts | 213° |
| 2026-04-25 14:23 | 46.75710 | -2.45344 | 33129 ft | 453 kts | 213° |
| 2026-04-25 14:23 | 46.70305 | -2.50070 | 33133 ft | 453 kts | 213° |
| 2026-04-25 14:24 | 46.64893 | -2.54789 | 33138 ft | 453 kts | 213° |
| 2026-04-25 14:24 | 46.59476 | -2.59500 | 33135 ft | 454 kts | 213° |
| 2026-04-25 14:25 | 46.54058 | -2.64207 | 33140 ft | 454 kts | 213° |
| 2026-04-25 14:25 | 46.48634 | -2.68905 | 33137 ft | 454 kts | 213° |
| 2026-04-25 14:26 | 46.43209 | -2.73601 | 33152 ft | 454 kts | 213° |
| 2026-04-25 14:26 | 46.37779 | -2.78290 | 33141 ft | 454 kts | 213° |
| 2026-04-25 14:27 | 46.32344 | -2.82972 | 33154 ft | 454 kts | 212° |
| 2026-04-25 14:27 | 46.26911 | -2.87635 | 33149 ft | 454 kts | 212° |
| 2026-04-25 14:28 | 46.21487 | -2.92319 | 33143 ft | 454 kts | 213° |
| 2026-04-25 14:28 | 46.16043 | -2.97070 | 33144 ft | 454 kts | 213° |
| 2026-04-25 14:29 | 46.10605 | -3.01802 | 33157 ft | 454 kts | 213° |
| 2026-04-25 14:29 | 46.05196 | -3.06492 | 33157 ft | 454 kts | 213° |
| 2026-04-25 14:30 | 45.99790 | -3.11173 | 33159 ft | 454 kts | 213° |
| 2026-04-25 14:30 | 45.91670 | -3.18165 | 33159 ft | 453 kts | 213° |
| 2026-04-25 14:31 | 45.86265 | -3.22810 | 33155 ft | 453 kts | 213° |
| 2026-04-25 14:31 | 45.80861 | -3.27454 | 33157 ft | 453 kts | 213° |
| 2026-04-25 14:32 | 45.75417 | -3.32101 | 33154 ft | 453 kts | 212° |
| 2026-04-25 14:32 | 45.70000 | -3.36716 | 33152 ft | 453 kts | 212° |
| 2026-04-25 14:33 | 45.64587 | -3.41334 | 33152 ft | 453 kts | 212° |
| 2026-04-25 14:33 | 45.59177 | -3.45943 | 33150 ft | 453 kts | 212° |
| 2026-04-25 14:34 | 45.53758 | -3.50531 | 33153 ft | 453 kts | 212° |
| 2026-04-25 14:34 | 45.48337 | -3.55110 | 33159 ft | 453 kts | 212° |
| 2026-04-25 14:35 | 45.42907 | -3.59691 | 33166 ft | 454 kts | 212° |
| 2026-04-25 14:35 | 45.37470 | -3.64264 | 33165 ft | 454 kts | 212° |
| 2026-04-25 14:36 | 45.32034 | -3.68831 | 33167 ft | 454 kts | 212° |
| 2026-04-25 14:36 | 45.26592 | -3.73390 | 33162 ft | 454 kts | 212° |
| 2026-04-25 14:37 | 45.21153 | -3.77950 | 33170 ft | 454 kts | 212° |
| 2026-04-25 14:37 | 45.15707 | -3.82495 | 33170 ft | 454 kts | 212° |
| 2026-04-25 14:38 | 45.10255 | -3.87026 | 33173 ft | 454 kts | 212° |
| 2026-04-25 14:38 | 45.04768 | -3.91591 | 33174 ft | 454 kts | 212° |
| 2026-04-25 14:39 | 44.99313 | -3.96110 | 33175 ft | 455 kts | 212° |
| 2026-04-25 14:39 | 44.93850 | -4.00619 | 33185 ft | 455 kts | 212° |
| 2026-04-25 14:40 | 44.89233 | -4.04429 | 33182 ft | 455 kts | 212° |
| 2026-04-25 14:40 | 44.83761 | -4.08940 | 33185 ft | 455 kts | 212° |
| 2026-04-25 14:41 | 44.78290 | -4.13440 | 33186 ft | 455 kts | 212° |
| 2026-04-25 14:41 | 44.72819 | -4.17916 | 33180 ft | 455 kts | 212° |
| 2026-04-25 14:42 | 44.68232 | -4.21664 | 33185 ft | 455 kts | 212° |
| 2026-04-25 14:42 | 44.61870 | -4.26860 | 33194 ft | 455 kts | 212° |
| 2026-04-25 14:43 | 44.56388 | -4.31328 | 33191 ft | 455 kts | 212° |
| 2026-04-25 14:43 | 44.50902 | -4.35785 | 33197 ft | 456 kts | 211° |
| 2026-04-25 14:44 | 44.45413 | -4.40230 | 33190 ft | 455 kts | 212° |
| 2026-04-25 14:44 | 44.39898 | -4.44710 | 33202 ft | 456 kts | 212° |
| 2026-04-25 14:45 | 44.34472 | -4.49279 | 33199 ft | 456 kts | 213° |
| 2026-04-25 14:45 | 44.29068 | -4.53915 | 33200 ft | 456 kts | 213° |
| 2026-04-25 14:46 | 44.23660 | -4.58516 | 33193 ft | 455 kts | 212° |
| 2026-04-25 14:46 | 44.18235 | -4.63080 | 33197 ft | 455 kts | 212° |
| 2026-04-25 14:47 | 44.13727 | -4.66862 | 33196 ft | 455 kts | 212° |
| 2026-04-25 14:47 | 44.07386 | -4.72180 | 33196 ft | 455 kts | 212° |
| 2026-04-25 14:48 | 44.01958 | -4.76721 | 33203 ft | 456 kts | 212° |
| 2026-04-25 14:48 | 43.96521 | -4.81264 | 33202 ft | 456 kts | 212° |
| 2026-04-25 14:49 | 43.91087 | -4.85801 | 33201 ft | 456 kts | 212° |
| 2026-04-25 14:49 | 43.85639 | -4.90336 | 33204 ft | 456 kts | 212° |
| 2026-04-25 14:50 | 43.80191 | -4.94847 | 33203 ft | 456 kts | 212° |
| 2026-04-25 14:50 | 43.74709 | -4.99379 | 33202 ft | 456 kts | 212° |
| 2026-04-25 14:51 | 43.69269 | -5.03879 | 33199 ft | 456 kts | 212° |
| 2026-04-25 14:51 | 43.63820 | -5.08374 | 33205 ft | 456 kts | 212° |
| 2026-04-25 14:52 | 43.58366 | -5.12857 | 33205 ft | 456 kts | 212° |
| 2026-04-25 14:52 | 43.53829 | -5.16582 | 33202 ft | 456 kts | 212° |
| 2026-04-25 14:53 | 43.47450 | -5.21805 | 33198 ft | 456 kts | 212° |
| 2026-04-25 14:53 | 43.41988 | -5.26270 | 33193 ft | 457 kts | 212° |
| 2026-04-25 14:54 | 43.36522 | -5.30730 | 33183 ft | 457 kts | 212° |
| 2026-04-25 14:54 | 43.31046 | -5.35187 | 33175 ft | 458 kts | 212° |
| 2026-04-25 14:55 | 43.25562 | -5.39635 | 33168 ft | 458 kts | 212° |
| 2026-04-25 14:55 | 43.20073 | -5.44088 | 33162 ft | 459 kts | 212° |
| 2026-04-25 14:56 | 43.14537 | -5.48558 | 33158 ft | 459 kts | 212° |
| 2026-04-25 14:56 | 43.09039 | -5.53007 | 33150 ft | 459 kts | 212° |
| 2026-04-25 14:57 | 43.03535 | -5.57453 | 33144 ft | 460 kts | 212° |
| 2026-04-25 14:57 | 42.98017 | -5.61889 | 33139 ft | 460 kts | 211° |
| 2026-04-25 14:58 | 42.92500 | -5.66308 | 33124 ft | 460 kts | 211° |
| 2026-04-25 14:58 | 42.86976 | -5.70727 | 33117 ft | 460 kts | 211° |
| 2026-04-25 14:59 | 42.81441 | -5.75139 | 33115 ft | 461 kts | 211° |
| 2026-04-25 14:59 | 42.75873 | -5.79578 | 33120 ft | 461 kts | 211° |
| 2026-04-25 15:00 | 42.70333 | -5.83989 | 33122 ft | 461 kts | 211° |
| 2026-04-25 15:00 | 42.64791 | -5.88384 | 33123 ft | 461 kts | 211° |
| 2026-04-25 15:01 | 42.59247 | -5.92780 | 33117 ft | 461 kts | 211° |
| 2026-04-25 15:01 | 42.53700 | -5.97162 | 33107 ft | 462 kts | 211° |
| 2026-04-25 15:02 | 42.48149 | -6.01537 | 33094 ft | 462 kts | 211° |
| 2026-04-25 15:02 | 42.42591 | -6.05909 | 33087 ft | 462 kts | 211° |
| 2026-04-25 15:03 | 42.37025 | -6.10285 | 33073 ft | 462 kts | 211° |
| 2026-04-25 15:03 | 42.31461 | -6.14651 | 33067 ft | 463 kts | 211° |
| 2026-04-25 15:04 | 42.25849 | -6.19037 | 33067 ft | 463 kts | 211° |
| 2026-04-25 15:04 | 42.20274 | -6.23396 | 33075 ft | 463 kts | 211° |
| 2026-04-25 15:05 | 42.14690 | -6.27750 | 33075 ft | 464 kts | 211° |
| 2026-04-25 15:06 | 42.06300 | -6.34268 | 33071 ft | 464 kts | 211° |
| 2026-04-25 15:06 | 42.00704 | -6.38611 | 33072 ft | 464 kts | 212° |
| 2026-04-25 15:07 | 41.95449 | -6.43626 | 33066 ft | 463 kts | 217° |
| 2026-04-25 15:07 | 41.90263 | -6.48779 | 33057 ft | 464 kts | 218° |
| 2026-04-25 15:08 | 41.85080 | -6.53940 | 33052 ft | 464 kts | 218° |
| 2026-04-25 15:08 | 41.79853 | -6.59114 | 33056 ft | 464 kts | 217° |
| 2026-04-25 15:09 | 41.74649 | -6.64238 | 33050 ft | 464 kts | 217° |
| 2026-04-25 15:09 | 41.67713 | -6.71049 | 33035 ft | 465 kts | 217° |
| 2026-04-25 15:10 | 41.62495 | -6.76155 | 33037 ft | 465 kts | 217° |
| 2026-04-25 15:11 | 41.54658 | -6.83812 | 33032 ft | 465 kts | 217° |
| 2026-04-25 15:11 | 41.49434 | -6.88920 | 33032 ft | 466 kts | 217° |
| 2026-04-25 15:12 | 41.41578 | -6.96549 | 33023 ft | 466 kts | 217° |
| 2026-04-25 15:12 | 41.37180 | -7.00802 | 33026 ft | 466 kts | 217° |
| 2026-04-25 15:13 | 41.28418 | -7.09291 | 33029 ft | 467 kts | 217° |
| 2026-04-25 15:14 | 41.23157 | -7.14379 | 33031 ft | 468 kts | 217° |
| 2026-04-25 15:14 | 41.17888 | -7.19457 | 33028 ft | 468 kts | 217° |
| 2026-04-25 15:15 | 41.12607 | -7.24523 | 33035 ft | 469 kts | 217° |
| 2026-04-25 15:15 | 41.07326 | -7.29589 | 33036 ft | 469 kts | 217° |
| 2026-04-25 15:16 | 41.02040 | -7.34645 | 33037 ft | 468 kts | 217° |
| 2026-04-25 15:16 | 40.94117 | -7.42219 | 33041 ft | 468 kts | 217° |
| 2026-04-25 15:17 | 40.88832 | -7.47257 | 32835 ft | 469 kts | 217° |
| 2026-04-25 15:17 | 40.86177 | -7.49782 | 32568 ft | 470 kts | 217° |
| 2026-04-25 15:17 | 40.83525 | -7.52304 | 32311 ft | 470 kts | 217° |
| 2026-04-25 15:18 | 40.80867 | -7.54828 | 32059 ft | 472 kts | 217° |
| 2026-04-25 15:18 | 40.75526 | -7.59886 | 31546 ft | 474 kts | 217° |
| 2026-04-25 15:18 | 40.72840 | -7.62422 | 31296 ft | 475 kts | 217° |
| 2026-04-25 15:19 | 40.70149 | -7.64962 | 31048 ft | 476 kts | 217° |
| 2026-04-25 15:19 | 40.68332 | -7.66680 | 30880 ft | 476 kts | 217° |
| 2026-04-25 15:19 | 40.64724 | -7.70088 | 30551 ft | 478 kts | 217° |
| 2026-04-25 15:19 | 40.62023 | -7.72636 | 30311 ft | 478 kts | 217° |
| 2026-04-25 15:20 | 40.59313 | -7.75186 | 30061 ft | 479 kts | 217° |
| 2026-04-25 15:20 | 40.56598 | -7.77736 | 29773 ft | 480 kts | 217° |
| 2026-04-25 15:20 | 40.53877 | -7.80290 | 29424 ft | 481 kts | 217° |
| 2026-04-25 15:20 | 40.51154 | -7.82844 | 29109 ft | 481 kts | 217° |
| 2026-04-25 15:21 | 40.48430 | -7.85399 | 28786 ft | 482 kts | 217° |
| 2026-04-25 15:21 | 40.45703 | -7.87956 | 28459 ft | 482 kts | 217° |
| 2026-04-25 15:21 | 40.42971 | -7.90517 | 28133 ft | 483 kts | 217° |
| 2026-04-25 15:21 | 40.40196 | -7.93107 | 27814 ft | 484 kts | 216° |
| 2026-04-25 15:22 | 40.37442 | -7.95659 | 27470 ft | 484 kts | 216° |
| 2026-04-25 15:22 | 40.34687 | -7.98199 | 27145 ft | 485 kts | 216° |
| 2026-04-25 15:22 | 40.31923 | -8.00741 | 26813 ft | 486 kts | 216° |
| 2026-04-25 15:22 | 40.29155 | -8.03286 | 26484 ft | 486 kts | 216° |
| 2026-04-25 15:23 | 40.26389 | -8.05839 | 26119 ft | 487 kts | 216° |
| 2026-04-25 15:23 | 40.23617 | -8.08401 | 25757 ft | 487 kts | 216° |
| 2026-04-25 15:23 | 40.20851 | -8.10951 | 25397 ft | 488 kts | 216° |
| 2026-04-25 15:23 | 40.18069 | -8.13509 | 25033 ft | 488 kts | 216° |
| 2026-04-25 15:24 | 40.15288 | -8.16064 | 24685 ft | 489 kts | 215° |
| 2026-04-25 15:24 | 40.12495 | -8.18628 | 24339 ft | 490 kts | 215° |
| 2026-04-25 15:24 | 40.09702 | -8.21189 | 23990 ft | 491 kts | 215° |
| 2026-04-25 15:24 | 40.07813 | -8.22922 | 23758 ft | 490 kts | 215° |
| 2026-04-25 15:25 | 40.04088 | -8.26336 | 23243 ft | 488 kts | 215° |
| 2026-04-25 15:25 | 40.01320 | -8.28873 | 22835 ft | 485 kts | 215° |
| 2026-04-25 15:25 | 39.98564 | -8.31392 | 22434 ft | 482 kts | 215° |
| 2026-04-25 15:25 | 39.95786 | -8.33927 | 22039 ft | 480 kts | 215° |
| 2026-04-25 15:26 | 39.93093 | -8.36385 | 21657 ft | 477 kts | 215° |
| 2026-04-25 15:26 | 39.90345 | -8.38888 | 21264 ft | 475 kts | 214° |
| 2026-04-25 15:26 | 39.87641 | -8.41346 | 20891 ft | 473 kts | 214° |
| 2026-04-25 15:26 | 39.84952 | -8.43790 | 20519 ft | 470 kts | 214° |
| 2026-04-25 15:27 | 39.82282 | -8.46217 | 20151 ft | 467 kts | 214° |
| 2026-04-25 15:27 | 39.79628 | -8.48628 | 19790 ft | 464 kts | 214° |
| 2026-04-25 15:27 | 39.74367 | -8.53402 | 19075 ft | 458 kts | 214° |
| 2026-04-25 15:28 | 39.71757 | -8.55764 | 18724 ft | 456 kts | 214° |
| 2026-04-25 15:28 | 39.69166 | -8.58105 | 18377 ft | 453 kts | 214° |
| 2026-04-25 15:28 | 39.66582 | -8.60437 | 17983 ft | 451 kts | 214° |
| 2026-04-25 15:28 | 39.64012 | -8.62754 | 17592 ft | 449 kts | 214° |
| 2026-04-25 15:29 | 39.61455 | -8.65057 | 17196 ft | 446 kts | 214° |
| 2026-04-25 15:29 | 39.58913 | -8.67343 | 16802 ft | 443 kts | 214° |
| 2026-04-25 15:29 | 39.56417 | -8.69588 | 16413 ft | 427 kts | 214° |
| 2026-04-25 15:29 | 39.54061 | -8.71705 | 16036 ft | 398 kts | 214° |
| 2026-04-25 15:30 | 39.51863 | -8.73679 | 15758 ft | 371 kts | 214° |
| 2026-04-25 15:30 | 39.49786 | -8.75543 | 15510 ft | 347 kts | 214° |
| 2026-04-25 15:30 | 39.47855 | -8.77277 | 15270 ft | 332 kts | 214° |
| 2026-04-25 15:30 | 39.45959 | -8.78977 | 15034 ft | 330 kts | 214° |
| 2026-04-25 15:31 | 39.44086 | -8.80655 | 14793 ft | 327 kts | 214° |
| 2026-04-25 15:31 | 39.42224 | -8.82327 | 14556 ft | 325 kts | 214° |
| 2026-04-25 15:31 | 39.40365 | -8.83990 | 14320 ft | 325 kts | 214° |
| 2026-04-25 15:31 | 39.38508 | -8.85649 | 14087 ft | 323 kts | 214° |
| 2026-04-25 15:32 | 39.36662 | -8.87300 | 13846 ft | 322 kts | 214° |
| 2026-04-25 15:32 | 39.34828 | -8.88944 | 13584 ft | 320 kts | 214° |
| 2026-04-25 15:32 | 39.32998 | -8.90580 | 13322 ft | 319 kts | 214° |
| 2026-04-25 15:33 | 39.29371 | -8.93812 | 13059 ft | 316 kts | 213° |
| 2026-04-25 15:33 | 39.27563 | -8.95420 | 13077 ft | 316 kts | 213° |
| 2026-04-25 15:33 | 39.25751 | -8.97033 | 13077 ft | 317 kts | 213° |
| 2026-04-25 15:33 | 39.23938 | -8.98644 | 13073 ft | 317 kts | 213° |
| 2026-04-25 15:34 | 39.22125 | -9.00255 | 13072 ft | 316 kts | 213° |
| 2026-04-25 15:34 | 39.20309 | -9.01867 | 13077 ft | 317 kts | 213° |
| 2026-04-25 15:34 | 39.18495 | -9.03476 | 13080 ft | 317 kts | 213° |
| 2026-04-25 15:34 | 39.17878 | -9.04023 | 13081 ft | 317 kts | 213° |
| 2026-04-25 15:35 | 39.13020 | -9.08328 | 12786 ft | 316 kts | 213° |
| 2026-04-25 15:35 | 39.11240 | -9.09903 | 12545 ft | 314 kts | 213° |
| 2026-04-25 15:35 | 39.09419 | -9.11514 | 12273 ft | 313 kts | 213° |
| 2026-04-25 15:36 | 39.05845 | -9.14673 | 11774 ft | 310 kts | 213° |
| 2026-04-25 15:36 | 39.04070 | -9.16243 | 11535 ft | 309 kts | 213° |
| 2026-04-25 15:36 | 39.02303 | -9.17803 | 11280 ft | 307 kts | 213° |
| 2026-04-25 15:37 | 39.00547 | -9.19355 | 11034 ft | 306 kts | 213° |
| 2026-04-25 15:37 | 38.98796 | -9.20905 | 10791 ft | 305 kts | 212° |
| 2026-04-25 15:37 | 38.97053 | -9.22446 | 10550 ft | 304 kts | 213° |
| 2026-04-25 15:37 | 38.95875 | -9.23485 | 10385 ft | 303 kts | 213° |
| 2026-04-25 15:38 | 38.94137 | -9.25012 | 10149 ft | 302 kts | 212° |
| 2026-04-25 15:38 | 38.92406 | -9.26532 | 9906 ft | 301 kts | 212° |
| 2026-04-25 15:38 | 38.90679 | -9.28051 | 9645 ft | 299 kts | 213° |
| 2026-04-25 15:38 | 38.88964 | -9.29556 | 9386 ft | 298 kts | 212° |
| 2026-04-25 15:39 | 38.87253 | -9.31056 | 9126 ft | 297 kts | 212° |
| 2026-04-25 15:39 | 38.85549 | -9.32547 | 8871 ft | 297 kts | 213° |
| 2026-04-25 15:39 | 38.83850 | -9.34034 | 8611 ft | 295 kts | 213° |
| 2026-04-25 15:39 | 38.82152 | -9.35521 | 8351 ft | 295 kts | 213° |
| 2026-04-25 15:40 | 38.80468 | -9.36996 | 8125 ft | 292 kts | 213° |
| 2026-04-25 15:40 | 38.79331 | -9.37993 | 8046 ft | 293 kts | 213° |
| 2026-04-25 15:40 | 38.77114 | -9.39937 | 8056 ft | 291 kts | 213° |
| 2026-04-25 15:40 | 38.75436 | -9.41405 | 8058 ft | 292 kts | 213° |
| 2026-04-25 15:41 | 38.73757 | -9.42872 | 8055 ft | 292 kts | 212° |
| 2026-04-25 15:41 | 38.72076 | -9.44340 | 8057 ft | 292 kts | 213° |
| 2026-04-25 15:41 | 38.70374 | -9.45829 | 8057 ft | 292 kts | 213° |
| 2026-04-25 15:41 | 38.68697 | -9.47293 | 8055 ft | 292 kts | 212° |
| 2026-04-25 15:42 | 38.67017 | -9.48758 | 8058 ft | 292 kts | 213° |
| 2026-04-25 15:42 | 38.65339 | -9.50220 | 8061 ft | 291 kts | 213° |
| 2026-04-25 15:42 | 38.63668 | -9.51674 | 8061 ft | 287 kts | 212° |
| 2026-04-25 15:42 | 38.62059 | -9.53074 | 8060 ft | 271 kts | 213° |
| 2026-04-25 15:43 | 38.60488 | -9.54280 | 8067 ft | 266 kts | 200° |
| 2026-04-25 15:43 | 38.58602 | -9.54795 | 7576 ft | 286 kts | 175° |
| 2026-04-25 15:43 | 38.56710 | -9.54128 | 7098 ft | 283 kts | 147° |
| 2026-04-25 15:43 | 38.55274 | -9.52484 | 6719 ft | 277 kts | 122° |
| 2026-04-25 15:44 | 38.54550 | -9.50253 | 6341 ft | 271 kts | 97° |
| 2026-04-25 15:44 | 38.54632 | -9.47881 | 5973 ft | 267 kts | 76° |
| 2026-04-25 15:44 | 38.55064 | -9.45578 | 5621 ft | 266 kts | 76° |
| 2026-04-25 15:44 | 38.55489 | -9.43280 | 5271 ft | 265 kts | 76° |
| 2026-04-25 15:45 | 38.55913 | -9.40991 | 4923 ft | 264 kts | 76° |
| 2026-04-25 15:45 | 38.56334 | -9.38708 | 4571 ft | 264 kts | 76° |
| 2026-04-25 15:45 | 38.56751 | -9.36431 | 4218 ft | 263 kts | 76° |
| 2026-04-25 15:45 | 38.57030 | -9.34893 | 4046 ft | 261 kts | 76° |
| 2026-04-25 15:46 | 38.57562 | -9.31953 | 4005 ft | 247 kts | 76° |
| 2026-04-25 15:46 | 38.57943 | -9.29848 | 4010 ft | 241 kts | 76° |
| 2026-04-25 15:46 | 38.58315 | -9.27773 | 4011 ft | 240 kts | 76° |
| 2026-04-25 15:46 | 38.58742 | -9.25718 | 4002 ft | 239 kts | 66° |
| 2026-04-25 15:47 | 38.59629 | -9.23946 | 3850 ft | 237 kts | 44° |
| 2026-04-25 15:47 | 38.60981 | -9.22739 | 3611 ft | 232 kts | 23° |
| 2026-04-25 15:47 | 38.62453 | -9.21959 | 3330 ft | 228 kts | 22° |
| 2026-04-25 15:47 | 38.63927 | -9.21175 | 3008 ft | 228 kts | 22° |
| 2026-04-25 15:48 | 38.65375 | -9.20403 | 2694 ft | 224 kts | 21° |
| 2026-04-25 15:48 | 38.66804 | -9.19642 | 2397 ft | 220 kts | 21° |
| 2026-04-25 15:48 | 38.68205 | -9.18895 | 2116 ft | 216 kts | 21° |
| 2026-04-25 15:48 | 38.69552 | -9.18176 | 1830 ft | 202 kts | 20° |
| 2026-04-25 15:49 | 38.70816 | -9.17500 | 1580 ft | 190 kts | 19° |
| 2026-04-25 15:49 | 38.71980 | -9.16877 | 1323 ft | 169 kts | 18° |
| 2026-04-25 15:49 | 38.72987 | -9.16338 | 1120 ft | 147 kts | 18° |
| 2026-04-25 15:49 | 38.73904 | -9.15850 | 929 ft | 141 kts | 18° |
| 2026-04-25 15:50 | 38.74808 | -9.15369 | 751 ft | 142 kts | 20° |
| 2026-04-25 15:50 | 38.75721 | -9.14882 | 584 ft | 139 kts | 17° |
| 2026-04-25 15:50 | 38.76664 | -9.14379 | 392 ft | 141 kts | 14° |
| 2026-04-25 15:50 | 38.77486 | -9.13955 | 365 ft | 110 kts | 24° |
| 2026-04-25 15:51 | 38.78010 | -9.13670 | 366 ft | 56 kts | 26° |
| 2026-04-25 15:51 | 38.78125 | -9.13603 | 373 ft | 50 kts | 25° |
| 2026-04-25 15:51 | 38.78352 | -9.13377 | 363 ft | 5 kts | 47° |
| 2026-04-25 15:51 | 38.78367 | -9.13343 | 362 ft | 0 kts | 66° |
| 2026-04-25 15:52 | 38.78369 | -9.13338 | 362 ft | 1 kts | 66° |
| 2026-04-25 15:52 | 38.78371 | -9.13325 | 362 ft | 2 kts | 77° |
| 2026-04-25 15:52 | 38.78369 | -9.13304 | 363 ft | 3 kts | 103° |
| 2026-04-25 15:52 | 38.78353 | -9.13279 | 364 ft | 5 kts | 145° |
| 2026-04-25 15:53 | 38.78316 | -9.13271 | 359 ft | 6 kts | 187° |
| 2026-04-25 15:53 | 38.78277 | -9.13287 | 363 ft | 6 kts | 200° |
| 2026-04-25 15:53 | 38.78234 | -9.13309 | 361 ft | 8 kts | 202° |
| 2026-04-25 15:53 | 38.78174 | -9.13342 | 360 ft | 10 kts | 204° |
| 2026-04-25 15:54 | 38.78101 | -9.13383 | 360 ft | 12 kts | 202° |
| 2026-04-25 15:54 | 38.78011 | -9.13409 | 356 ft | 15 kts | 176° |
| 2026-04-25 15:54 | 38.77889 | -9.13382 | 350 ft | 21 kts | 165° |
| 2026-04-25 15:54 | 38.77750 | -9.13345 | 347 ft | 22 kts | 168° |
| 2026-04-25 15:55 | 38.77650 | -9.13324 | 338 ft | 23 kts | 175° |
| 2026-04-25 15:55 | 38.77452 | -9.13286 | 337 ft | 21 kts | 169° |
| 2026-04-25 15:55 | 38.77318 | -9.13256 | 338 ft | 19 kts | 170° |
| 2026-04-25 15:55 | 38.77213 | -9.13229 | 336 ft | 8 kts | 164° |
| 2026-04-25 15:56 | 38.77202 | -9.13171 | 335 ft | 7 kts | 84° |
| 2026-04-25 15:56 | 38.77206 | -9.13142 | 333 ft | 0 kts | 78° |